Time;durP1;ratioP1;P1;durP2;ratioP2;P2;SDS_P1;SDS_P2;PMS_P1;PMS_P2;Temp;Humidity;BMP_temperature;BMP_pressure;BME280_temperature;BME280_humidity;BME280_pressure;Samples;Min_cycle;Max_cycle;Signal;HPM_P1;HPM_P2
2021/04/19 00:00:20;;;;;;;2.40;1.33;;;10.90;61.50;;;;;;5011783;28;20081;-74
2021/04/19 00:02:46;;;;;;;2.50;1.20;;;10.90;61.60;;;;;;5010668;28;20402;-74
2021/04/19 00:05:14;;;;;;;2.03;1.20;;;10.80;61.70;;;;;;5011565;28;20378;-78
2021/04/19 00:07:40;;;;;;;2.92;1.40;;;10.80;61.80;;;;;;5011762;28;20029;-73
2021/04/19 00:10:07;;;;;;;3.42;1.42;;;10.80;61.80;;;;;;5011882;28;20105;-73
2021/04/19 00:12:33;;;;;;;1.63;1.08;;;10.80;61.90;;;;;;5011318;28;20091;-74
2021/04/19 00:14:59;;;;;;;2.47;1.10;;;10.80;61.90;;;;;;5011855;28;20048;-74
2021/04/19 00:17:24;;;;;;;2.80;1.30;;;10.80;62.00;;;;;;5011495;28;20367;-74
2021/04/19 00:19:50;;;;;;;3.90;1.45;;;10.70;62.10;;;;;;5011656;28;20026;-74
2021/04/19 00:22:16;;;;;;;2.50;1.20;;;10.70;62.20;;;;;;5011365;28;20053;-74
2021/04/19 00:24:41;;;;;;;2.15;1.45;;;10.70;62.40;;;;;;5011509;28;20022;-73
2021/04/19 00:27:07;;;;;;;4.70;1.85;;;10.70;62.50;;;;;;5011668;28;20466;-74
2021/04/19 00:29:34;;;;;;;3.22;1.40;;;10.70;62.60;;;;;;5011138;28;20203;-73
2021/04/19 00:32:00;;;;;;;3.05;1.48;;;10.70;63.30;;;;;;5011881;28;20112;-74
2021/04/19 00:34:25;;;;;;;5.18;1.75;;;10.70;62.70;;;;;;5010822;28;20104;-74
2021/04/19 00:36:51;;;;;;;2.75;1.40;;;10.60;62.70;;;;;;5011707;28;20382;-74
2021/04/19 00:39:17;;;;;;;3.55;1.50;;;10.60;62.80;;;;;;5011139;28;20025;-74
2021/04/19 00:41:44;;;;;;;2.83;1.17;;;10.60;62.90;;;;;;5011579;28;20477;-74
2021/04/19 00:44:10;;;;;;;3.78;1.33;;;10.60;63.00;;;;;;5011498;28;20113;-74
2021/04/19 00:46:36;;;;;;;3.00;1.25;;;10.60;63.00;;;;;;5011100;28;20041;-73
2021/04/19 00:49:02;;;;;;;4.82;1.45;;;10.50;63.00;;;;;;5011048;28;20025;-73
2021/04/19 00:51:28;;;;;;;2.88;1.70;;;10.50;63.20;;;;;;5014493;28;20028;-74
2021/04/19 00:53:54;;;;;;;2.97;1.48;;;10.50;63.30;;;;;;5015252;28;20065;-74
2021/04/19 00:56:20;;;;;;;3.25;1.50;;;10.40;63.40;;;;;;5014515;28;20057;-74
2021/04/19 00:58:46;;;;;;;3.10;1.50;;;10.30;63.50;;;;;;5015171;28;20053;-74
2021/04/19 01:01:14;;;;;;;3.00;1.40;;;10.40;63.70;;;;;;5015157;28;20079;-74
2021/04/19 01:03:40;;;;;;;6.03;1.73;;;10.30;63.70;;;;;;5014628;28;20056;-73
2021/04/19 01:06:06;;;;;;;4.05;1.92;;;10.30;63.70;;;;;;5015042;28;20058;-74
2021/04/19 01:08:32;;;;;;;3.70;2.05;;;10.40;63.90;;;;;;5013022;28;20063;-75
2021/04/19 01:10:58;;;;;;;5.10;1.88;;;10.30;63.90;;;;;;5013753;28;20014;-74
2021/04/19 01:13:24;;;;;;;3.95;1.67;;;10.30;64.00;;;;;;5014263;28;20030;-74
2021/04/19 01:15:49;;;;;;;4.63;1.60;;;10.30;64.10;;;;;;5014448;28;20029;-74
2021/04/19 01:18:15;;;;;;;3.92;1.83;;;10.30;64.20;;;;;;5013569;28;20021;-74
2021/04/19 01:20:49;;;;;;;4.25;1.88;;;10.30;64.30;;;;;;5014099;28;20061;-73
2021/04/19 01:23:16;;;;;;;4.93;1.65;;;10.30;64.30;;;;;;5014530;28;20026;-73
2021/04/19 01:25:43;;;;;;;5.30;2.05;;;10.20;64.40;;;;;;5013868;28;20095;-74
2021/04/19 01:28:09;;;;;;;4.07;1.50;;;10.20;64.50;;;;;;5014377;28;20085;-74
2021/04/19 01:30:47;;;;;;;3.95;1.75;;;10.20;64.60;;;;;;5013982;28;20026;-74
2021/04/19 01:33:13;;;;;;;4.60;1.60;;;10.20;64.80;;;;;;5014672;28;20022;-74
2021/04/19 01:35:39;;;;;;;3.25;1.50;;;10.10;64.70;;;;;;5013910;28;20080;-74
2021/04/19 01:38:07;;;;;;;3.33;1.77;;;10.10;64.70;;;;;;5014485;28;20382;-74
2021/04/19 01:40:32;;;;;;;5.20;1.67;;;10.10;64.80;;;;;;5012480;28;20029;-74
2021/04/19 01:42:58;;;;;;;3.55;1.80;;;10.00;64.90;;;;;;5014080;28;20030;-74
2021/04/19 01:45:25;;;;;;;2.70;1.70;;;10.00;64.90;;;;;;5013543;28;20065;-74
2021/04/19 01:47:52;;;;;;;4.65;2.15;;;10.10;65.10;;;;;;5014274;28;20041;-73
2021/04/19 01:50:24;;;;;;;3.83;1.92;;;10.00;65.10;;;;;;5014314;28;20026;-73
2021/04/19 01:52:51;;;;;;;4.55;1.70;;;10.00;65.30;;;;;;5012962;28;20032;-74
2021/04/19 01:55:20;;;;;;;2.92;1.52;;;9.90;65.40;;;;;;5014086;28;20033;-74
2021/04/19 01:58:15;;;;;;;4.72;2.22;;;9.90;65.50;;;;;;5013757;28;20505;-74
2021/04/19 02:00:44;;;;;;;5.50;2.08;;;9.90;65.60;;;;;;5012991;28;20062;-74
2021/04/19 02:03:47;;;;;;;5.35;2.15;;;9.80;65.50;;;;;;5013670;28;20034;-73
2021/04/19 02:06:23;;;;;;;5.35;1.80;;;9.80;65.50;;;;;;5013578;28;20117;-74
2021/04/19 02:09:19;;;;;;;4.97;2.00;;;9.80;65.60;;;;;;5014024;28;20076;-74
2021/04/19 02:12:08;;;;;;;7.00;1.80;;;9.80;65.70;;;;;;5013354;28;20022;-74
2021/04/19 02:14:48;;;;;;;3.13;1.63;;;9.80;65.80;;;;;;5011833;28;20363;-74
2021/04/19 02:17:14;;;;;;;4.47;1.95;;;9.80;65.70;;;;;;5013635;28;20088;-73
2021/04/19 02:19:40;;;;;;;7.50;2.00;;;9.70;65.70;;;;;;5012991;28;20053;-73
2021/04/19 02:22:30;;;;;;;3.78;1.73;;;9.70;65.90;;;;;;5012622;28;20159;-74
2021/04/19 02:25:05;;;;;;;2.97;1.35;;;9.70;66.00;;;;;;5013616;28;20030;-74
2021/04/19 02:27:37;;;;;;;5.90;2.05;;;9.70;66.00;;;;;;5012937;28;20026;-73
2021/04/19 02:30:05;;;;;;;;;;;9.70;66.10;;;;;;5014161;28;20036;-73
2021/04/19 02:32:35;;;;;;;3.00;1.80;;;9.50;66.00;;;;;;5012400;28;20324;-74
2021/04/19 02:35:06;;;;;;;5.47;2.38;;;9.60;66.80;;;;;;5013319;28;20046;-74
2021/04/19 02:37:35;;;;;;;3.28;1.98;;;9.60;66.30;;;;;;5012762;28;20045;-74
2021/04/19 02:40:01;;;;;;;4.90;2.22;;;9.60;66.30;;;;;;5011918;28;20414;-74
2021/04/19 02:42:29;;;;;;;3.45;1.60;;;9.60;66.50;;;;;;5011045;28;20026;-73
2021/04/19 02:44:56;;;;;;;3.95;1.67;;;9.60;66.60;;;;;;5012808;28;20030;-73
2021/04/19 02:47:23;;;;;;;5.07;2.22;;;9.50;66.50;;;;;;5013120;28;20029;-73
2021/04/19 02:49:49;;;;;;;5.15;1.90;;;9.40;66.70;;;;;;5012821;28;20033;-73
2021/04/19 02:52:16;;;;;;;4.90;1.80;;;9.40;66.90;;;;;;5011414;28;20018;-74
2021/04/19 02:54:44;;;;;;;4.72;2.22;;;9.40;66.90;;;;;;5011060;28;20029;-74
2021/04/19 02:57:24;;;;;;;5.68;1.83;;;9.40;67.00;;;;;;5013090;28;20061;-74
2021/04/19 02:59:52;;;;;;;5.70;2.28;;;9.40;67.10;;;;;;5011263;28;20057;-74
2021/04/19 03:02:20;;;;;;;4.85;2.00;;;9.40;67.20;;;;;;5012920;28;20069;-74
2021/04/19 03:04:46;;;;;;;3.75;1.63;;;9.30;67.30;;;;;;5010679;28;20429;-73
2021/04/19 03:07:13;;;;;;;5.10;1.95;;;9.20;67.50;;;;;;5011558;28;20061;-73
2021/04/19 03:09:46;;;;;;;4.65;1.80;;;9.20;67.60;;;;;;5012244;28;20079;-74
2021/04/19 03:12:15;;;;;;;4.75;1.90;;;9.20;67.80;;;;;;5012155;28;20025;-73
2021/04/19 03:14:47;;;;;;;4.72;2.35;;;9.20;67.90;;;;;;5010777;28;20439;-73
2021/04/19 03:17:15;;;;;;;4.05;1.90;;;9.20;68.00;;;;;;5012707;28;20038;-74
2021/04/19 03:20:06;;;;;;;5.40;2.45;;;9.10;68.10;;;;;;5012008;28;20493;-74
2021/04/19 03:22:38;;;;;;;8.57;1.98;;;9.10;68.20;;;;;;5012206;28;20397;-74
2021/04/19 03:25:06;;;;;;;5.35;2.03;;;9.10;68.20;;;;;;5012229;28;20022;-73
2021/04/19 03:27:33;;;;;;;6.38;2.42;;;9.10;68.20;;;;;;5010591;28;20026;-73
2021/04/19 03:30:00;;;;;;;4.85;2.05;;;9.10;68.20;;;;;;5012472;28;20022;-73
2021/04/19 03:32:37;;;;;;;5.47;1.70;;;9.00;68.20;;;;;;5012481;28;20116;-74
2021/04/19 03:35:05;;;;;;;4.70;2.40;;;9.10;68.30;;;;;;5012410;28;20026;-73
2021/04/19 03:37:34;;;;;;;4.70;2.17;;;9.00;68.40;;;;;;5011409;28;20386;-74
2021/04/19 03:40:13;;;;;;;5.15;2.42;;;9.00;68.50;;;;;;5012346;28;20518;-73
2021/04/19 03:42:40;;;;;;;6.25;2.22;;;9.00;68.60;;;;;;5011626;28;20033;-74
2021/04/19 03:45:09;;;;;;;6.90;2.65;;;8.90;68.60;;;;;;5012209;28;20378;-74
2021/04/19 03:47:37;;;;;;;10.30;2.53;;;8.90;68.70;;;;;;5011426;28;20022;-73
2021/04/19 03:50:05;;;;;;;5.03;2.20;;;9.00;68.70;;;;;;5012378;28;20033;-74
2021/04/19 03:52:35;;;;;;;4.80;2.20;;;9.00;68.60;;;;;;5011491;28;20076;-74
2021/04/19 03:55:04;;;;;;;7.75;2.75;;;9.00;68.60;;;;;;5012207;28;20026;-73
2021/04/19 03:57:32;;;;;;;9.13;3.03;;;9.00;68.60;;;;;;5011305;28;20108;-71
2021/04/19 04:00:06;;;;;;;6.57;2.40;;;9.10;68.60;;;;;;5012238;28;20096;-72
2021/04/19 04:02:37;;;;;;;8.23;2.97;;;9.10;68.70;;;;;;5011494;28;20037;-73
2021/04/19 04:05:03;;;;;;;5.65;2.33;;;9.10;68.60;;;;;;5010721;28;20028;-73
2021/04/19 04:07:31;;;;;;;7.68;2.67;;;9.10;68.60;;;;;;5012106;28;20033;-74
2021/04/19 04:09:58;;;;;;;6.80;2.75;;;9.20;68.70;;;;;;5011798;28;20386;-72
2021/04/19 04:12:24;;;;;;;7.18;2.88;;;9.20;68.70;;;;;;5010448;28;20022;-73
2021/04/19 04:14:55;;;;;;;5.10;2.50;;;9.30;68.70;;;;;;5011183;28;20191;-73
2021/04/19 04:17:21;;;;;;;9.07;2.72;;;9.30;68.80;;;;;;5012186;28;20026;-73
2021/04/19 04:19:46;;;;;;;6.60;2.60;;;9.30;68.70;;;;;;5011342;28;20026;-74
2021/04/19 04:22:14;;;;;;;7.20;2.40;;;9.30;68.70;;;;;;5011676;28;20037;-74
2021/04/19 04:24:41;;;;;;;11.02;2.88;;;9.40;68.80;;;;;;5014481;28;20040;-73
2021/04/19 04:27:08;;;;;;;6.28;3.08;;;9.40;68.80;;;;;;5015947;28;20029;-73
2021/04/19 04:29:33;;;;;;;7.20;2.90;;;9.40;68.70;;;;;;5015078;28;20119;-74
2021/04/19 04:31:59;;;;;;;7.90;2.63;;;9.40;68.70;;;;;;5014286;28;20062;-74
2021/04/19 04:34:25;;;;;;;6.57;3.08;;;9.50;68.80;;;;;;5015625;28;20034;-73
2021/04/19 04:36:51;;;;;;;6.47;2.50;;;9.50;68.90;;;;;;5014354;28;20026;-74
2021/04/19 04:39:17;;;;;;;4.97;2.28;;;9.50;68.80;;;;;;5011628;28;20064;-74
2021/04/19 04:41:42;;;;;;;6.10;2.75;;;9.60;68.80;;;;;;5014094;28;20726;-73
2021/04/19 04:44:13;;;;;;;7.25;3.05;;;9.60;68.80;;;;;;5027122;28;20466;-74
2021/04/19 04:46:57;;;;;;;10.20;3.37;;;9.60;68.80;;;;;;5011780;28;20466;-75
2021/04/19 04:49:27;;;;;;;8.77;2.90;;;9.70;68.90;;;;;;5010864;28;20368;-75
2021/04/19 04:51:56;;;;;;;7.82;3.58;;;9.70;68.90;;;;;;5014820;28;20095;-74
2021/04/19 04:54:24;;;;;;;5.93;2.60;;;9.70;69.20;;;;;;5015609;28;20121;-74
2021/04/19 04:56:57;;;;;;;7.60;3.05;;;9.60;69.30;;;;;;5014663;28;20470;-75
2021/04/19 04:59:26;;;;;;;6.60;2.90;;;9.60;69.60;;;;;;5014964;28;20116;-73
2021/04/19 05:01:53;;;;;;;6.57;2.72;;;9.50;69.80;;;;;;5013273;28;20105;-74
2021/04/19 05:04:19;;;;;;;10.73;3.33;;;9.50;69.80;;;;;;5015025;28;20060;-74
2021/04/19 05:06:46;;;;;;;5.13;2.58;;;9.50;70.00;;;;;;5013125;28;20057;-74
2021/04/19 05:09:12;;;;;;;5.75;2.40;;;9.50;70.40;;;;;;5013450;28;20026;-74
2021/04/19 05:11:39;;;;;;;6.05;3.33;;;9.40;70.70;;;;;;5014408;28;20018;-74
2021/04/19 05:14:04;;;;;;;7.63;3.40;;;9.40;71.20;;;;;;5014901;28;20030;-74
2021/04/19 05:16:31;;;;;;;6.07;2.78;;;9.40;71.20;;;;;;5013086;28;20462;-73
2021/04/19 05:18:59;;;;;;;7.15;3.05;;;9.30;71.40;;;;;;5012025;28;20458;-75
2021/04/19 05:21:26;;;;;;;5.13;2.55;;;9.20;72.40;;;;;;5014207;28;20033;-73
2021/04/19 05:23:52;;;;;;;7.15;3.22;;;9.20;72.20;;;;;;5013759;28;20049;-72
2021/04/19 05:26:20;;;;;;;8.32;2.47;;;9.10;72.40;;;;;;5014784;28;20462;-72
2021/04/19 05:28:46;;;;;;;9.30;3.03;;;9.00;72.70;;;;;;5012639;28;20508;-72
2021/04/19 05:31:12;;;;;;;5.53;2.33;;;8.90;73.40;;;;;;5011510;28;20026;-72
2021/04/19 05:33:38;;;;;;;8.57;2.83;;;8.90;73.40;;;;;;5011593;28;20026;-77
2021/04/19 05:36:11;;;;;;;8.45;2.97;;;8.80;73.80;;;;;;5011572;28;20415;-75
2021/04/19 05:38:38;;;;;;;9.15;3.45;;;8.80;73.90;;;;;;5012301;28;20096;-80
2021/04/19 05:41:05;;;;;;;10.40;3.45;;;8.70;74.00;;;;;;5012264;28;20030;-74
2021/04/19 05:43:30;;;;;;;8.18;3.30;;;8.80;74.20;;;;;;5014135;28;20034;-73
2021/04/19 05:45:58;;;;;;;9.00;3.28;;;8.80;74.60;;;;;;5013404;28;20022;-73
2021/04/19 05:48:24;;;;;;;7.18;3.13;;;8.70;75.10;;;;;;5012360;28;20417;-72
2021/04/19 05:50:53;;;;;;;10.15;3.50;;;8.70;75.10;;;;;;5011473;28;20030;-72
2021/04/19 05:53:19;;;;;;;7.28;3.00;;;8.60;75.50;;;;;;5013562;28;20394;-73
2021/04/19 05:55:46;;;;;;;6.10;3.28;;;8.60;76.00;;;;;;5013193;28;20028;-73
2021/04/19 05:58:25;;;;;;;7.80;3.10;;;8.50;76.20;;;;;;5014153;28;20110;-73
2021/04/19 06:01:10;;;;;;;7.18;3.55;;;8.50;76.50;;;;;;5012933;28;20088;-73
2021/04/19 06:03:51;;;;;;;9.30;3.92;;;8.50;76.60;;;;;;5013760;28;20022;-73
2021/04/19 06:06:41;;;;;;;6.75;3.42;;;8.50;77.20;;;;;;5013727;28;20423;-73
2021/04/19 06:09:15;;;;;;;8.27;3.72;;;8.50;76.90;;;;;;5013615;28;20036;-73
2021/04/19 06:11:48;;;;;;;8.82;3.35;;;8.50;76.80;;;;;;5011838;28;20108;-74
2021/04/19 06:14:23;;;;;;;8.30;3.40;;;8.60;76.90;;;;;;5012397;28;20040;-73
2021/04/19 06:16:50;;;;;;;7.70;3.85;;;8.60;76.80;;;;;;5012799;28;20439;-73
2021/04/19 06:19:17;;;;;;;7.90;3.33;;;8.60;76.60;;;;;;5013268;28;20026;-73
2021/04/19 06:21:44;;;;;;;8.40;3.72;;;8.70;76.50;;;;;;5012948;28;20076;-73
2021/04/19 06:24:11;;;;;;;10.27;3.90;;;8.80;76.40;;;;;;5013516;28;20048;-72
2021/04/19 06:26:37;;;;;;;7.95;3.53;;;8.90;76.50;;;;;;5013446;28;20038;-73
2021/04/19 06:29:08;;;;;;;7.50;3.50;;;8.80;76.80;;;;;;5013145;28;20026;-74
2021/04/19 06:31:36;;;;;;;9.00;3.95;;;8.80;76.80;;;;;;5013567;28;20437;-73
2021/04/19 06:34:08;;;;;;;7.35;3.70;;;8.90;76.80;;;;;;5011453;28;20084;-73
2021/04/19 06:36:35;;;;;;;;;;;9.00;76.90;;;;;;5013666;28;20535;-73
2021/04/19 06:39:00;;;;;;;8.50;3.90;;;8.90;76.80;;;;;;5012762;28;19948;-72
2021/04/19 06:41:27;;;;;;;8.93;4.45;;;8.90;76.80;;;;;;5013121;28;20407;-75
2021/04/19 06:43:56;;;;;;;10.88;4.88;;;9.00;77.50;;;;;;5012489;28;20382;-73
2021/04/19 06:46:24;;;;;;;7.65;3.53;;;9.00;76.90;;;;;;5010813;28;20117;-74
2021/04/19 06:48:51;;;;;;;10.13;4.93;;;9.00;76.90;;;;;;5011019;28;20033;-73
2021/04/19 06:51:17;;;;;;;10.45;4.32;;;9.10;77.00;;;;;;5012695;28;20022;-72
2021/04/19 06:53:42;;;;;;;11.73;5.03;;;9.10;77.00;;;;;;5013072;28;20044;-74
2021/04/19 06:56:10;;;;;;;11.60;4.60;;;9.10;77.10;;;;;;5012382;28;20021;-72
2021/04/19 06:58:37;;;;;;;7.13;3.78;;;9.10;77.10;;;;;;5012508;28;20377;-73
2021/04/19 07:01:04;;;;;;;11.30;4.05;;;9.20;77.00;;;;;;5012429;28;20060;-74
2021/04/19 07:03:30;;;;;;;8.20;3.53;;;9.20;77.00;;;;;;5012925;28;20033;-73
2021/04/19 07:05:57;;;;;;;9.43;3.85;;;9.30;77.00;;;;;;5011893;28;20064;-73
2021/04/19 07:08:31;;;;;;;11.27;4.32;;;9.40;77.00;;;;;;5012670;28;20536;-73
2021/04/19 07:11:03;;;;;;;10.77;4.35;;;9.50;77.00;;;;;;5010558;28;20018;-73
2021/04/19 07:13:30;;;;;;;11.02;4.25;;;9.50;76.80;;;;;;5011254;28;20489;-73
2021/04/19 07:15:56;;;;;;;11.00;4.50;;;9.60;76.70;;;;;;5011752;28;20045;-72
2021/04/19 07:18:22;;;;;;;9.80;3.85;;;9.60;76.60;;;;;;5012396;28;20010;-73
2021/04/19 07:20:48;;;;;;;6.57;3.45;;;9.70;76.70;;;;;;5010236;28;20181;-74
2021/04/19 07:23:15;;;;;;;9.73;4.15;;;9.80;76.60;;;;;;5011034;28;20026;-74
2021/04/19 07:25:43;;;;;;;10.15;4.90;;;9.90;76.40;;;;;;5012167;28;20061;-73
2021/04/19 07:28:11;;;;;;;11.93;5.05;;;10.00;76.30;;;;;;5011671;28;20026;-73
2021/04/19 07:30:37;;;;;;;8.05;4.13;;;10.10;76.20;;;;;;5010947;28;20045;-73
2021/04/19 07:33:03;;;;;;;8.80;3.70;;;10.20;76.30;;;;;;5011945;28;20026;-73
2021/04/19 07:35:31;;;;;;;6.63;3.40;;;10.20;76.30;;;;;;5012094;28;20030;-73
2021/04/19 07:38:02;;;;;;;8.65;4.45;;;10.20;76.40;;;;;;5011687;28;20055;-72
2021/04/19 07:40:35;;;;;;;;;;;10.30;76.40;;;;;;5011288;28;20433;-73
2021/04/19 07:43:16;;;;;;;9.63;4.05;;;10.40;76.10;;;;;;5011657;28;19948;-74
2021/04/19 07:45:59;;;;;;;10.77;4.50;;;10.60;76.00;;;;;;5012201;28;20026;-73
2021/04/19 07:48:34;;;;;;;7.10;3.70;;;10.60;75.80;;;;;;5010624;28;20769;-73
2021/04/19 07:51:20;;;;;;;11.88;4.47;;;10.70;76.00;;;;;;5011989;28;20114;-74
2021/04/19 07:53:45;;;;;;;9.77;4.55;;;10.60;76.10;;;;;;5012074;28;20029;-73
2021/04/19 07:56:16;;;;;;;8.35;3.95;;;10.70;76.40;;;;;;5011375;28;20378;-73
2021/04/19 07:58:41;;;;;;;11.77;5.57;;;10.80;76.60;;;;;;5011717;28;20026;-73
2021/04/19 08:01:07;;;;;;;10.10;4.60;;;10.90;77.10;;;;;;5011378;28;20061;-74
2021/04/19 08:03:38;;;;;;;8.07;3.67;;;10.90;76.50;;;;;;5011639;28;20171;-74
2021/04/19 08:06:22;;;;;;;9.25;4.80;;;11.10;76.50;;;;;;5011755;28;20121;-74
2021/04/19 08:08:48;;;;;;;9.38;5.05;;;11.20;76.50;;;;;;5011994;28;20525;-74
2021/04/19 08:11:18;;;;;;;9.75;4.18;;;11.20;76.40;;;;;;5009804;28;20032;-73
2021/04/19 08:13:45;;;;;;;8.80;4.07;;;11.30;76.70;;;;;;5010480;28;20022;-73
2021/04/19 08:16:24;;;;;;;10.60;4.72;;;11.30;76.50;;;;;;5009875;28;20018;-73
2021/04/19 08:18:50;;;;;;;9.25;4.07;;;11.40;76.70;;;;;;5010119;28;20100;-76
2021/04/19 08:21:26;;;;;;;9.50;4.00;;;11.40;76.60;;;;;;5011607;28;20029;-73
2021/04/19 08:23:52;;;;;;;10.05;4.07;;;11.60;76.80;;;;;;5011053;28;20066;-74
2021/04/19 08:26:17;;;;;;;7.32;3.35;;;11.70;76.50;;;;;;5010435;28;20352;-74
2021/04/19 08:28:45;;;;;;;7.63;3.17;;;11.70;76.40;;;;;;5011481;28;20390;-74
2021/04/19 08:31:12;;;;;;;6.63;3.50;;;11.80;76.50;;;;;;5009855;28;20125;-74
2021/04/19 08:33:38;;;;;;;6.63;2.97;;;11.80;76.60;;;;;;5010509;28;20018;-74
2021/04/19 08:36:14;;;;;;;7.50;3.03;;;11.80;76.60;;;;;;5010135;28;20018;-74
2021/04/19 08:38:41;;;;;;;8.27;3.53;;;11.80;76.80;;;;;;5011717;28;20034;-73
2021/04/19 08:41:09;;;;;;;8.05;3.50;;;11.90;76.80;;;;;;5010038;28;20485;-74
2021/04/19 08:43:36;;;;;;;6.60;3.03;;;11.90;76.90;;;;;;5012038;28;20073;-74
2021/04/19 08:46:04;;;;;;;5.70;2.67;;;12.00;76.90;;;;;;5026354;28;20038;-72
2021/04/19 08:48:30;;;;;;;8.02;3.65;;;12.00;76.80;;;;;;5012044;28;20033;-74
2021/04/19 08:51:00;;;;;;;8.70;3.15;;;12.10;76.60;;;;;;5011035;28;20025;-73
2021/04/19 08:53:28;;;;;;;7.32;3.38;;;12.10;76.60;;;;;;5011937;28;20022;-74
2021/04/19 08:55:54;;;;;;;7.88;3.05;;;12.00;77.40;;;;;;5010924;28;20033;-73
2021/04/19 08:58:20;;;;;;;7.63;2.75;;;12.00;77.00;;;;;;5011079;28;20054;-74
2021/04/19 09:00:53;;;;;;;7.20;2.72;;;12.00;77.20;;;;;;5010911;28;20046;-73
2021/04/19 09:03:21;;;;;;;7.47;3.08;;;12.10;77.30;;;;;;5010134;28;20394;-74
2021/04/19 09:05:47;;;;;;;8.45;3.45;;;12.20;77.10;;;;;;5011275;28;20030;-73
2021/04/19 09:08:18;;;;;;;7.03;3.22;;;12.20;76.90;;;;;;5009273;28;20034;-73
2021/04/19 09:10:53;;;;;;;6.93;3.38;;;12.30;76.80;;;;;;5028238;28;20029;-74
2021/04/19 09:13:43;;;;;;;6.50;2.83;;;12.40;76.80;;;;;;5014803;28;20049;-74
2021/04/19 09:16:22;;;;;;;9.20;3.10;;;12.50;76.60;;;;;;5012870;28;20025;-73
2021/04/19 09:18:57;;;;;;;6.10;3.00;;;12.60;76.50;;;;;;5014927;28;20014;-74
2021/04/19 09:21:44;;;;;;;7.65;3.13;;;12.70;76.20;;;;;;5014784;28;20559;-73
2021/04/19 09:24:17;;;;;;;8.48;3.40;;;12.80;76.10;;;;;;5014102;28;20070;-74
2021/04/19 09:26:51;;;;;;;6.63;2.95;;;12.90;76.00;;;;;;5014962;28;20022;-73
2021/04/19 09:29:26;;;;;;;6.28;3.40;;;13.00;75.90;;;;;;5012706;28;20022;-73
2021/04/19 09:32:07;;;;;;;5.88;2.72;;;13.10;75.90;;;;;;5014774;28;20022;-73
2021/04/19 09:34:42;;;;;;;5.82;2.65;;;13.20;75.80;;;;;;5014763;28;20113;-73
2021/04/19 09:37:10;;;;;;;6.97;3.38;;;13.30;75.80;;;;;;5013905;28;20474;-72
2021/04/19 09:39:48;;;;;;;6.30;2.55;;;13.30;75.70;;;;;;5013058;28;20493;-74
2021/04/19 09:42:15;;;;;;;5.43;2.45;;;13.40;75.70;;;;;;5013731;28;20037;-73
2021/04/19 09:44:52;;;;;;;5.07;2.50;;;13.40;75.60;;;;;;5014219;28;20473;-74
2021/04/19 09:47:46;;;;;;;3.88;1.90;;;13.60;75.60;;;;;;5013615;28;20489;-74
2021/04/19 09:50:14;;;;;;;3.92;2.03;;;13.70;75.40;;;;;;5011810;28;20021;-74
2021/04/19 09:52:40;;;;;;;6.05;2.50;;;13.70;75.40;;;;;;5014159;28;20136;-74
2021/04/19 09:55:07;;;;;;;4.15;2.92;;;13.70;75.40;;;;;;5013476;28;20117;-75
2021/04/19 09:57:34;;;;;;;6.57;2.65;;;13.70;75.40;;;;;;5012658;28;20026;-74
2021/04/19 10:00:00;;;;;;;7.47;2.95;;;13.70;75.60;;;;;;5013476;28;20084;-75
2021/04/19 10:02:27;;;;;;;6.40;2.97;;;13.60;75.80;;;;;;5014156;28;20026;-74
2021/04/19 10:04:54;;;;;;;5.50;2.40;;;13.70;75.90;;;;;;5013916;28;20117;-73
2021/04/19 10:07:20;;;;;;;5.40;2.75;;;13.80;75.70;;;;;;5012041;28;20022;-73
2021/04/19 10:09:47;;;;;;;5.05;2.30;;;13.90;75.50;;;;;;5012563;28;20026;-73
2021/04/19 10:12:15;;;;;;;6.45;3.03;;;14.10;75.30;;;;;;5011997;28;20381;-75
2021/04/19 10:14:41;;;;;;;5.85;2.85;;;14.10;75.10;;;;;;5013975;28;20045;-74
2021/04/19 10:17:18;;;;;;;6.30;3.17;;;14.10;75.00;;;;;;5013142;28;20058;-74
2021/04/19 10:19:44;;;;;;;6.50;3.00;;;14.20;75.00;;;;;;5012352;28;20491;-74
2021/04/19 10:22:11;;;;;;;5.75;2.88;;;14.20;74.80;;;;;;5012360;28;20026;-74
2021/04/19 10:24:50;;;;;;;7.35;2.88;;;14.30;74.60;;;;;;5013261;28;20026;-74
2021/04/19 10:27:24;;;;;;;6.18;2.30;;;14.40;74.40;;;;;;5011748;28;20022;-73
2021/04/19 10:29:51;;;;;;;7.22;2.60;;;14.50;74.20;;;;;;5013486;28;20022;-73
2021/04/19 10:32:27;;;;;;;10.15;3.20;;;14.50;74.10;;;;;;5012800;28;20022;-74
2021/04/19 10:34:52;;;;;;;5.28;2.22;;;14.60;74.10;;;;;;5013441;28;20034;-73
2021/04/19 10:37:18;;;;;;;5.53;2.38;;;14.60;74.00;;;;;;5012671;28;20026;-73
2021/04/19 10:39:45;;;;;;;5.13;2.30;;;14.70;73.80;;;;;;5013286;28;20025;-74
2021/04/19 10:42:11;;;;;;;6.20;3.10;;;14.70;73.70;;;;;;5011247;28;20029;-74
2021/04/19 10:44:40;;;;;;;5.53;2.70;;;14.70;73.50;;;;;;5012747;28;20034;-73
2021/04/19 10:47:08;;;;;;;6.07;2.88;;;14.70;73.40;;;;;;5011253;28;20022;-73
2021/04/19 10:49:34;;;;;;;5.07;2.60;;;14.70;73.60;;;;;;5011784;28;20041;-74
2021/04/19 10:52:03;;;;;;;6.22;3.30;;;14.80;73.60;;;;;;5011370;28;20030;-73
2021/04/19 10:54:34;;;;;;;4.30;2.20;;;14.90;73.20;;;;;;5028147;28;20532;-73
2021/04/19 10:57:00;;;;;;;;;;;15.00;73.00;;;;;;5013527;28;20497;-73
2021/04/19 10:59:27;;;;;;;4.63;2.47;;;15.00;72.70;;;;;;5012082;28;19905;-74
2021/04/19 11:01:57;;;;;;;4.20;2.17;;;15.10;72.50;;;;;;5012707;28;20526;-74
2021/04/19 11:04:23;;;;;;;4.55;2.55;;;15.20;72.40;;;;;;5012128;28;20033;-73
2021/04/19 11:06:48;;;;;;;4.38;2.35;;;15.20;71.90;;;;;;5012850;28;20151;-73
2021/04/19 11:09:19;;;;;;;4.80;2.25;;;15.10;72.10;;;;;;5011958;28;20505;-75
2021/04/19 11:11:51;;;;;;;;;;;15.20;72.10;;;;;;5012230;28;20132;-74
2021/04/19 11:14:25;;;;;;;4.88;2.47;;;15.30;71.60;;;;;;5012354;28;19940;-74
2021/04/19 11:16:59;;;;;;;3.88;1.80;;;15.60;71.00;;;;;;5012845;28;20115;-74
2021/04/19 11:19:30;;;;;;;4.72;2.08;;;15.70;70.40;;;;;;5010978;28;20073;-75
2021/04/19 11:21:56;;;;;;;3.70;1.77;;;15.90;70.20;;;;;;5012656;28;20029;-74
2021/04/19 11:24:37;;;;;;;3.35;1.73;;;15.90;70.00;;;;;;5010666;28;20402;-73
2021/04/19 11:27:06;;;;;;;4.93;2.05;;;16.10;69.90;;;;;;5011097;28;20498;-77
2021/04/19 11:29:40;;;;;;;3.15;1.38;;;16.20;69.60;;;;;;5012232;28;20018;-73
2021/04/19 11:32:07;;;;;;;7.00;2.38;;;16.40;69.30;;;;;;5011581;28;20026;-73
2021/04/19 11:34:41;;;;;;;6.10;2.13;;;16.50;69.10;;;;;;5012043;28;20034;-74
2021/04/19 11:37:27;;;;;;;4.93;2.28;;;16.70;68.70;;;;;;5011651;28;20014;-73
2021/04/19 11:39:55;;;;;;;3.42;1.58;;;16.70;68.40;;;;;;5012054;28;20036;-73
2021/04/19 11:42:33;;;;;;;4.38;2.00;;;16.60;68.60;;;;;;5011722;28;20029;-73
2021/04/19 11:44:59;;;;;;;4.40;2.00;;;16.60;68.90;;;;;;5026920;28;20022;-74
2021/04/19 11:47:25;;;;;;;3.60;1.92;;;16.40;69.30;;;;;;5010152;28;20342;-73
2021/04/19 11:49:56;;;;;;;3.65;1.88;;;16.20;69.40;;;;;;5012121;28;20026;-74
2021/04/19 11:52:23;;;;;;;3.05;1.48;;;16.10;69.70;;;;;;5011512;28;20018;-74
2021/04/19 11:54:48;;;;;;;2.15;1.48;;;15.90;70.00;;;;;;5012110;28;20032;-73
2021/04/19 11:57:14;;;;;;;3.92;2.15;;;15.80;70.00;;;;;;5011224;28;20105;-74
2021/04/19 11:59:40;;;;;;;4.90;2.10;;;15.80;70.00;;;;;;5010476;28;20049;-72
2021/04/19 12:02:07;;;;;;;3.40;1.60;;;15.80;70.00;;;;;;5011875;28;20144;-77
2021/04/19 12:04:33;;;;;;;3.85;2.08;;;15.80;69.90;;;;;;5011988;28;20080;-73
2021/04/19 12:06:58;;;;;;;4.10;1.63;;;15.70;69.80;;;;;;5012139;28;20026;-73
2021/04/19 12:09:24;;;;;;;3.92;1.75;;;15.80;69.70;;;;;;5010063;28;20064;-73
2021/04/19 12:11:51;;;;;;;4.00;1.70;;;15.80;69.50;;;;;;5011923;28;20052;-73
2021/04/19 12:14:16;;;;;;;3.22;1.90;;;15.80;69.30;;;;;;5011270;28;20056;-74
2021/04/19 12:16:42;;;;;;;4.47;1.92;;;15.70;69.10;;;;;;5011560;28;20049;-73
2021/04/19 12:19:08;;;;;;;5.18;2.38;;;15.70;69.10;;;;;;5011336;28;20402;-76
2021/04/19 12:21:34;;;;;;;5.88;2.00;;;15.70;69.10;;;;;;5011709;28;20081;-73
2021/04/19 12:24:00;;;;;;;3.75;2.05;;;15.70;69.00;;;;;;5011886;28;20026;-73
2021/04/19 12:26:25;;;;;;;3.65;2.05;;;15.60;69.00;;;;;;5011094;28;20037;-73
2021/04/19 12:28:51;;;;;;;3.95;1.60;;;15.60;69.00;;;;;;5011903;28;20366;-73
2021/04/19 12:31:17;;;;;;;4.45;1.67;;;15.60;68.90;;;;;;5011075;28;20438;-73
2021/04/19 12:33:43;;;;;;;3.53;1.83;;;15.60;68.90;;;;;;5011808;28;20030;-74
2021/04/19 12:36:10;;;;;;;3.45;1.80;;;15.60;68.70;;;;;;5011418;28;20034;-77
2021/04/19 12:38:35;;;;;;;2.70;1.67;;;15.60;68.50;;;;;;5011440;28;20468;-74
2021/04/19 12:41:01;;;;;;;4.47;1.95;;;15.60;68.50;;;;;;5012086;28;20030;-73
2021/04/19 12:43:27;;;;;;;3.25;1.55;;;15.70;68.50;;;;;;5010737;28;20458;-73
2021/04/19 12:45:52;;;;;;;4.07;1.67;;;15.70;68.30;;;;;;5030428;28;20025;-73
2021/04/19 12:48:18;;;;;;;3.53;1.65;;;15.80;67.90;;;;;;5013364;28;20032;-73
2021/04/19 12:50:44;;;;;;;3.55;1.92;;;16.00;67.70;;;;;;5014878;28;20113;-74
2021/04/19 12:53:10;;;;;;;2.90;1.75;;;16.10;67.40;;;;;;5015288;28;20014;-73
2021/04/19 12:55:41;;;;;;;6.22;2.22;;;16.20;67.10;;;;;;5015386;28;20030;-73
2021/04/19 12:58:07;;;;;;;4.85;2.03;;;16.20;66.90;;;;;;5013739;28;20116;-73
2021/04/19 13:00:33;;;;;;;4.75;2.15;;;16.30;66.70;;;;;;5012865;28;20133;-73